createdAt,value
2023-04-13T00:01:58.923Z,6.06
2023-04-13T00:04:05.037Z,6.02
2023-04-13T00:06:10.823Z,5.98
2023-04-13T00:08:13.929Z,5.93
2023-04-13T00:10:19.123Z,5.84
2023-04-13T00:12:21.845Z,5.89
2023-04-13T00:14:27.567Z,5.85
2023-04-13T00:16:32.332Z,5.82
2023-04-13T00:18:35.378Z,5.82
2023-04-13T00:20:38.308Z,5.83
2023-04-13T00:22:45.190Z,5.82
2023-04-13T00:24:47.926Z,5.88
2023-04-13T00:26:51.547Z,5.89
2023-04-13T00:28:54.192Z,5.90
2023-04-13T00:30:57.285Z,5.87
2023-04-13T00:33:03.546Z,5.94
2023-04-13T00:35:07.257Z,5.94
2023-04-13T00:37:09.910Z,5.92
2023-04-13T00:39:13.533Z,5.91
2023-04-13T00:41:16.289Z,5.92
2023-04-13T00:43:19.059Z,6.00
2023-04-13T00:45:21.762Z,5.98
2023-04-13T00:47:29.003Z,6.09
2023-04-13T00:49:34.559Z,6.01
2023-04-13T00:51:37.393Z,5.92
2023-04-13T00:53:40.213Z,5.95
2023-04-13T00:55:43.215Z,5.91
2023-04-13T00:57:45.929Z,5.89
2023-04-13T00:59:49.617Z,5.91
2023-04-13T01:01:56.654Z,5.86
2023-04-13T01:03:59.572Z,5.87
2023-04-13T01:06:18.062Z,5.84
2023-04-13T01:08:28.549Z,5.88
2023-04-13T01:10:37.874Z,5.90
2023-04-13T01:12:44.052Z,5.82
2023-04-13T01:14:52.976Z,5.82
2023-04-13T01:16:58.425Z,5.80
2023-04-13T01:19:01.938Z,5.82
2023-04-13T01:21:07.934Z,5.83
2023-04-13T01:23:17.238Z,5.81
2023-04-13T01:25:31.888Z,5.73
2023-04-13T01:27:46.967Z,5.78
2023-04-13T01:29:51.908Z,5.74
2023-04-13T01:31:56.642Z,5.77
2023-04-13T01:33:59.700Z,5.83
2023-04-13T01:36:03.113Z,5.83
2023-04-13T01:38:06.672Z,5.82
2023-04-13T01:40:11.372Z,5.83
2023-04-13T01:42:14.086Z,5.73
2023-04-13T01:44:18.151Z,5.74
2023-04-13T01:46:27.553Z,5.81
2023-04-13T01:48:36.030Z,5.72
2023-04-13T01:50:42.505Z,5.73
2023-04-13T01:52:45.555Z,5.57
2023-04-13T01:54:50.553Z,5.54
2023-04-13T01:56:57.028Z,5.52
2023-04-13T01:59:00.729Z,5.45
2023-04-13T02:01:07.902Z,5.46
2023-04-13T02:03:12.189Z,5.52
2023-04-13T02:05:15.005Z,5.49
2023-04-13T02:07:17.748Z,5.45
2023-04-13T02:09:20.335Z,5.45
2023-04-13T02:11:23.084Z,5.50
2023-04-13T02:13:26.313Z,5.51
2023-04-13T02:15:29.046Z,5.49
2023-04-13T02:17:33.080Z,5.47
2023-04-13T02:19:35.750Z,5.47
2023-04-13T02:21:38.463Z,5.49
2023-04-13T02:23:42.190Z,5.46
2023-04-13T02:25:47.849Z,5.49
2023-04-13T02:27:51.469Z,5.61
2023-04-13T02:29:55.111Z,5.58
2023-04-13T02:31:57.911Z,5.61
2023-04-13T02:34:02.008Z,5.58
2023-04-13T02:36:05.638Z,5.61
2023-04-13T02:38:09.657Z,5.55
2023-04-13T02:40:12.586Z,5.52
2023-04-13T02:42:15.331Z,5.67
2023-04-13T02:44:18.234Z,5.64
2023-04-13T02:46:21.832Z,5.60
2023-04-13T02:48:25.696Z,5.59
2023-04-13T02:50:29.854Z,5.56
2023-04-13T02:52:32.569Z,5.53
2023-04-13T02:54:35.274Z,5.58
2023-04-13T02:56:38.078Z,5.56
2023-04-13T02:58:41.793Z,5.49
2023-04-13T03:00:44.648Z,5.52
2023-04-13T03:02:47.740Z,5.47
2023-04-13T03:04:50.653Z,5.44
2023-04-13T03:06:55.071Z,5.40
2023-04-13T03:08:57.696Z,5.41
2023-04-13T03:11:00.772Z,5.46
2023-04-13T03:13:03.466Z,5.46
2023-04-13T03:15:10.877Z,5.44
2023-04-13T03:17:14.793Z,5.45
2023-04-13T03:19:17.698Z,5.45
2023-04-13T03:21:20.624Z,5.44
2023-04-13T03:23:24.654Z,5.43
2023-04-13T03:25:27.331Z,5.44
2023-04-13T03:27:29.980Z,5.58
2023-04-13T03:29:32.678Z,5.55
2023-04-13T03:31:35.390Z,5.70
2023-04-13T03:33:38.185Z,5.70
2023-04-13T03:35:41.014Z,5.64
2023-04-13T03:37:44.732Z,5.70
2023-04-13T03:39:48.908Z,5.76
2023-04-13T03:41:51.542Z,5.78
2023-04-13T03:43:54.362Z,5.77
2023-04-13T03:45:57.344Z,5.78
2023-04-13T03:48:00.293Z,5.69
2023-04-13T03:50:03.648Z,5.84
2023-04-13T03:52:06.289Z,5.72
2023-04-13T03:54:08.910Z,5.84
2023-04-13T03:56:12.953Z,5.68
2023-04-13T03:58:15.665Z,5.79
2023-04-13T04:00:18.954Z,5.67
2023-04-13T04:02:21.717Z,5.62
2023-04-13T04:04:24.638Z,5.63
2023-04-13T04:06:28.265Z,5.60
2023-04-13T04:08:32.570Z,5.70
2023-04-13T04:10:36.361Z,5.64
2023-04-13T04:12:40.330Z,5.67
2023-04-13T04:14:42.957Z,5.72
2023-04-13T04:16:45.766Z,5.66
2023-04-13T04:18:48.522Z,5.66
2023-04-13T04:20:51.297Z,5.71
2023-04-13T04:22:54.085Z,5.74
2023-04-13T04:24:59.007Z,5.68
2023-04-13T04:27:02.560Z,5.74
2023-04-13T04:29:08.855Z,5.72
2023-04-13T04:31:11.669Z,5.68
2023-04-13T04:33:14.416Z,5.70
2023-04-13T04:35:19.330Z,5.80
2023-04-13T04:37:23.333Z,5.79
2023-04-13T04:39:26.807Z,5.65
2023-04-13T04:41:31.057Z,5.75
2023-04-13T04:43:35.818Z,5.68
2023-04-13T04:45:41.784Z,5.67
2023-04-13T04:47:44.672Z,5.65
2023-04-13T04:49:47.479Z,5.65
2023-04-13T04:51:50.398Z,5.69
2023-04-13T04:53:53.684Z,5.70
2023-04-13T04:55:56.515Z,5.65
2023-04-13T04:57:59.118Z,5.71
2023-04-13T05:00:02.122Z,5.62
2023-04-13T05:02:06.229Z,5.62
2023-04-13T05:04:09.004Z,5.60
2023-04-13T05:06:11.667Z,5.67
2023-04-13T05:08:14.365Z,5.65
2023-04-13T05:10:17.037Z,5.71
2023-04-13T05:12:19.769Z,5.75
2023-04-13T05:14:22.501Z,5.70
2023-04-13T05:16:26.002Z,5.80
2023-04-13T05:18:32.391Z,5.75
2023-04-13T05:20:35.256Z,5.75
2023-04-13T05:22:37.954Z,5.77
2023-04-13T05:24:40.641Z,5.89
2023-04-13T05:26:43.382Z,5.76
2023-04-13T05:28:46.109Z,5.79
2023-04-13T05:30:49.259Z,5.83
2023-04-13T05:32:52.120Z,5.79
2023-04-13T05:34:56.266Z,5.84
2023-04-13T05:36:59.659Z,5.82
2023-04-13T05:39:04.449Z,5.83
2023-04-13T05:41:08.070Z,6.03
2023-04-13T05:43:11.114Z,5.93
2023-04-13T05:45:17.113Z,5.85
2023-04-13T05:47:22.464Z,5.84
2023-04-13T05:49:25.952Z,5.89
2023-04-13T05:51:31.859Z,5.86
2023-04-13T05:53:34.491Z,5.82
2023-04-13T05:55:37.164Z,5.82
2023-04-13T05:57:40.076Z,5.84
2023-04-13T05:59:42.707Z,5.89
2023-04-13T06:01:46.248Z,5.87
2023-04-13T06:03:49.077Z,5.90
2023-04-13T06:05:52.838Z,5.96
2023-04-13T06:07:56.856Z,6.01
2023-04-13T06:10:00.832Z,5.97
2023-04-13T06:12:04.176Z,6.00
2023-04-13T06:14:06.834Z,6.05
2023-04-13T06:16:10.351Z,6.08
2023-04-13T06:18:13.179Z,6.05
2023-04-13T06:20:16.318Z,6.19
2023-04-13T06:22:19.001Z,6.18
2023-04-13T06:24:23.043Z,6.12
2023-04-13T06:26:25.713Z,6.18
2023-04-13T06:28:30.491Z,6.24
2023-04-13T06:30:33.250Z,6.27
2023-04-13T06:32:36.049Z,6.27
2023-04-13T06:34:39.083Z,6.35
2023-04-13T06:36:41.774Z,6.31
2023-04-13T06:38:44.462Z,6.53
2023-04-13T06:40:48.450Z,6.48
2023-04-13T06:42:51.078Z,7.04
2023-04-13T06:44:53.729Z,7.29
2023-04-13T06:46:56.668Z,7.69
2023-04-13T06:48:59.622Z,7.92
2023-04-13T06:51:02.562Z,8.45
2023-04-13T06:53:05.206Z,8.03
2023-04-13T06:55:08.303Z,8.09
2023-04-13T06:57:13.338Z,7.44
2023-04-13T06:59:16.111Z,7.35
2023-04-13T07:01:18.886Z,7.29
2023-04-13T07:03:21.647Z,7.12
2023-04-13T07:05:24.771Z,7.11
2023-04-13T07:07:27.489Z,7.10
2023-04-13T07:09:30.465Z,7.66
2023-04-13T07:11:33.237Z,7.42
2023-04-13T07:13:37.315Z,7.49
2023-04-13T07:15:40.516Z,7.41
2023-04-13T07:17:43.283Z,7.31
2023-04-13T07:19:47.797Z,6.95
2023-04-13T07:21:50.478Z,6.81
2023-04-13T07:23:53.127Z,6.74
2023-04-13T07:25:56.004Z,6.56
2023-04-13T07:27:58.730Z,6.77
2023-04-13T07:30:03.046Z,6.90
2023-04-13T07:32:08.192Z,6.82
2023-04-13T07:34:12.183Z,6.80
2023-04-13T07:36:14.856Z,6.87
2023-04-13T07:38:17.680Z,6.64
2023-04-13T07:40:20.603Z,6.75
2023-04-13T07:42:23.339Z,6.82
2023-04-13T07:44:25.977Z,6.87
2023-04-13T07:46:30.165Z,6.73
2023-04-13T07:48:32.955Z,6.69
2023-04-13T07:50:41.449Z,6.80
2023-04-13T07:52:44.080Z,6.78
2023-04-13T07:54:46.764Z,6.77
2023-04-13T07:56:49.434Z,6.88
2023-04-13T07:58:52.187Z,6.67
2023-04-13T08:00:55.070Z,6.69
2023-04-13T08:02:59.179Z,6.83
2023-04-13T08:05:02.275Z,6.98
2023-04-13T08:07:05.649Z,7.21
2023-04-13T08:09:09.450Z,7.42
2023-04-13T08:11:12.139Z,7.69
2023-04-13T08:13:14.908Z,7.59
2023-04-13T08:15:18.198Z,8.20
2023-04-13T08:17:21.729Z,7.83
2023-04-13T08:19:25.920Z,7.56
2023-04-13T08:21:29.831Z,7.71
2023-04-13T08:23:32.782Z,7.96
2023-04-13T08:25:40.583Z,7.81
2023-04-13T08:27:43.249Z,7.71
2023-04-13T08:29:46.505Z,7.27
2023-04-13T08:31:49.218Z,7.37
2023-04-13T08:33:52.142Z,7.73
2023-04-13T08:35:56.608Z,7.67
2023-04-13T08:38:00.854Z,7.73
2023-04-13T08:40:07.336Z,7.95
2023-04-13T08:42:10.896Z,7.77
2023-04-13T08:44:14.218Z,7.49
2023-04-13T08:46:19.433Z,7.41
2023-04-13T08:48:23.651Z,7.30
2023-04-13T08:50:27.240Z,7.17
2023-04-13T08:52:31.451Z,7.22
2023-04-13T08:54:35.137Z,7.56
2023-04-13T08:56:45.928Z,7.87
2023-04-13T08:58:53.835Z,7.58
2023-04-13T09:00:56.492Z,7.66
2023-04-13T09:03:06.241Z,7.62
2023-04-13T09:05:16.070Z,7.75
2023-04-13T09:07:26.675Z,7.55
2023-04-13T09:09:32.850Z,7.86
2023-04-13T09:11:35.641Z,8.17
2023-04-13T09:13:38.349Z,8.16
2023-04-13T09:15:42.758Z,8.32
2023-04-13T09:17:45.748Z,8.33
2023-04-13T09:19:48.462Z,8.37
2023-04-13T09:21:51.153Z,8.38
2023-04-13T09:23:55.698Z,8.61
2023-04-13T09:26:09.846Z,8.98
2023-04-13T09:28:19.249Z,9.39
2023-04-13T09:30:23.457Z,10.90
2023-04-13T09:32:27.976Z,9.73
2023-04-13T09:34:30.623Z,10.17
2023-04-13T09:36:33.576Z,11.20
2023-04-13T09:38:36.341Z,10.91
2023-04-13T09:40:49.085Z,10.03
2023-04-13T09:42:57.962Z,11.02
2023-04-13T09:45:00.932Z,9.54
2023-04-13T09:47:06.975Z,9.64
2023-04-13T09:49:10.092Z,9.02
2023-04-13T09:51:13.157Z,8.88
2023-04-13T09:53:15.828Z,9.03
2023-04-13T09:55:18.743Z,9.13
2023-04-13T09:57:25.748Z,8.70
2023-04-13T09:59:31.034Z,8.70
2023-04-13T10:01:34.461Z,8.78
2023-04-13T10:03:38.180Z,8.62
2023-04-13T10:05:58.054Z,8.94
2023-04-13T10:08:02.521Z,9.07
2023-04-13T10:10:05.449Z,9.25
2023-04-13T10:12:12.001Z,8.75
2023-04-13T10:14:18.979Z,8.80
2023-04-13T10:16:40.321Z,8.83
2023-04-13T10:18:57.811Z,8.67
2023-04-13T10:21:01.759Z,8.67
2023-04-13T10:23:05.561Z,8.51
2023-04-13T10:25:21.702Z,8.32
2023-04-13T10:27:32.686Z,8.54
2023-04-13T10:29:35.563Z,8.60
2023-04-13T10:31:41.796Z,8.65
2023-04-13T10:33:49.042Z,8.62
2023-04-13T10:35:58.664Z,8.68
2023-04-13T10:38:01.801Z,8.75
2023-04-13T10:40:07.735Z,8.60
2023-04-13T10:42:12.901Z,8.82
2023-04-13T10:44:15.810Z,8.97
2023-04-13T10:46:18.909Z,9.02
2023-04-13T10:48:23.091Z,9.43
2023-04-13T10:50:27.917Z,9.16
2023-04-13T10:52:31.570Z,8.83
2023-04-13T10:54:36.017Z,8.85
2023-04-13T10:56:38.929Z,8.73
2023-04-13T10:58:42.107Z,8.72
2023-04-13T11:00:47.091Z,8.67
2023-04-13T11:02:51.346Z,9.09
2023-04-13T11:04:55.922Z,9.00
2023-04-13T11:06:59.180Z,9.30
2023-04-13T11:09:04.174Z,9.02
2023-04-13T11:11:07.091Z,9.11
2023-04-13T11:13:09.820Z,8.91
2023-04-13T11:15:20.484Z,9.15
2023-04-13T11:17:23.485Z,9.37
2023-04-13T11:19:26.406Z,9.05
2023-04-13T11:21:31.699Z,9.31
2023-04-13T11:23:34.793Z,9.32
2023-04-13T11:25:37.754Z,9.67
2023-04-13T11:27:40.818Z,9.94
2023-04-13T11:29:43.701Z,9.56
2023-04-13T11:31:46.827Z,9.12
2023-04-13T11:33:51.442Z,9.22
2023-04-13T11:35:56.046Z,9.24
2023-04-13T11:38:00.266Z,8.85
2023-04-13T11:40:12.400Z,8.74
2023-04-13T11:42:15.193Z,8.52
2023-04-13T11:44:18.470Z,8.16
2023-04-13T11:46:25.053Z,8.16
2023-04-13T11:48:28.410Z,7.25
2023-04-13T11:50:31.666Z,7.07
2023-04-13T11:52:36.164Z,7.13
2023-04-13T11:54:42.863Z,7.31
2023-04-13T11:56:47.750Z,7.65
2023-04-13T11:58:53.092Z,7.45
2023-04-13T12:00:58.318Z,8.02
2023-04-13T12:03:15.288Z,8.65
2023-04-13T12:05:30.120Z,8.88
2023-04-13T12:07:33.440Z,9.54
2023-04-13T12:09:55.992Z,9.89
2023-04-13T12:12:29.924Z,9.44
2023-04-13T12:17:01.282Z,10.39
2023-04-13T12:18:52.427Z,9.95
2023-04-13T12:20:55.701Z,10.05
2023-04-13T12:23:05.842Z,10.21
2023-04-13T12:25:20.661Z,10.56
2023-04-13T12:27:24.642Z,10.19
2023-04-13T12:29:28.055Z,9.86
2023-04-13T12:31:34.872Z,9.36
2023-04-13T12:33:37.878Z,9.99
2023-04-13T12:35:40.624Z,9.74
2023-04-13T12:37:43.743Z,9.44
2023-04-13T12:39:46.549Z,9.36
2023-04-13T12:41:51.213Z,9.36
2023-04-13T12:43:54.167Z,9.19
2023-04-13T12:45:57.435Z,9.47
2023-04-13T12:48:00.186Z,9.71
2023-04-13T12:50:04.548Z,9.60
2023-04-13T12:52:07.440Z,9.73
2023-04-13T12:54:13.210Z,9.33
2023-04-13T12:56:16.031Z,9.34
2023-04-13T12:58:20.112Z,9.18
2023-04-13T13:00:23.294Z,9.15
2023-04-13T13:02:28.162Z,9.13
2023-04-13T13:04:31.003Z,9.11
2023-04-13T13:06:33.912Z,9.22
2023-04-13T13:08:39.385Z,9.75
2023-04-13T13:10:43.502Z,9.00
2023-04-13T13:12:46.717Z,9.26
2023-04-13T13:14:50.783Z,9.47
2023-04-13T13:16:53.783Z,9.19
2023-04-13T13:18:56.706Z,9.37
2023-04-13T13:20:59.412Z,9.53
2023-04-13T13:23:02.101Z,9.66
2023-04-13T13:25:05.945Z,10.18
2023-04-13T13:29:15.173Z,10.39
2023-04-13T13:31:19.512Z,9.98
2023-04-13T13:33:23.229Z,9.82
2023-04-13T13:35:26.352Z,9.00
2023-04-13T13:37:29.037Z,8.33
2023-04-13T13:39:32.159Z,8.27
2023-04-13T13:41:34.846Z,8.24
2023-04-13T13:43:37.642Z,7.66
2023-04-13T13:45:40.611Z,6.94
2023-04-13T13:47:44.683Z,6.73
2023-04-13T13:49:47.369Z,6.81
2023-04-13T13:51:50.220Z,6.92
2023-04-13T13:53:52.922Z,7.48
2023-04-13T13:55:56.338Z,7.70
2023-04-13T13:57:59.064Z,7.95
2023-04-13T14:00:13.297Z,8.12
2023-04-13T14:02:16.047Z,8.10
2023-04-13T14:04:20.145Z,8.03
2023-04-13T14:06:22.893Z,8.14
2023-04-13T14:08:25.688Z,8.41
2023-04-13T14:10:28.432Z,8.69
2023-04-13T14:12:31.190Z,8.25
2023-04-13T14:14:33.960Z,8.49
2023-04-13T14:16:36.647Z,8.65
2023-04-13T14:18:39.379Z,8.21
2023-04-13T14:20:44.794Z,8.29
2023-04-13T14:22:47.496Z,8.27
2023-04-13T14:24:51.708Z,7.87
2023-04-13T14:26:54.412Z,7.85
2023-04-13T14:28:57.342Z,7.87
2023-04-13T14:31:00.111Z,7.88
2023-04-13T14:33:03.995Z,8.03
2023-04-13T14:35:07.079Z,7.66
2023-04-13T14:37:11.530Z,7.80
2023-04-13T14:39:16.102Z,7.33
2023-04-13T14:41:18.816Z,7.27
2023-04-13T14:43:21.697Z,7.33
2023-04-13T14:45:24.585Z,7.55
2023-04-13T14:47:27.320Z,7.70
2023-04-13T14:49:30.040Z,7.65
2023-04-13T14:51:32.874Z,7.70
2023-04-13T14:53:36.929Z,7.62
2023-04-13T14:55:39.725Z,7.58
2023-04-13T14:57:42.598Z,7.43
2023-04-13T14:59:45.983Z,7.02
2023-04-13T15:01:49.018Z,7.46
2023-04-13T15:03:53.420Z,7.31
2023-04-13T15:06:03.409Z,7.39
2023-04-13T15:08:08.350Z,7.19
2023-04-13T15:10:12.816Z,7.39
2023-04-13T15:12:15.531Z,7.38
2023-04-13T15:14:18.239Z,7.66
2023-04-13T15:16:21.340Z,7.55
2023-04-13T15:18:24.123Z,7.40
2023-04-13T15:20:26.975Z,7.48
2023-04-13T15:22:30.998Z,7.57
2023-04-13T15:24:33.686Z,7.44
2023-04-13T15:26:40.889Z,7.49
2023-04-13T15:28:43.629Z,7.56
2023-04-13T15:30:46.454Z,7.64
2023-04-13T15:32:50.300Z,7.49
2023-04-13T15:34:56.173Z,7.36
2023-04-13T15:36:59.436Z,7.38
2023-04-13T15:39:02.660Z,7.40
2023-04-13T15:41:05.630Z,7.46
2023-04-13T15:43:09.741Z,7.22
2023-04-13T15:45:12.607Z,7.15
2023-04-13T15:47:15.450Z,7.16
2023-04-13T15:49:18.144Z,7.14
2023-04-13T15:51:21.294Z,7.30
2023-04-13T15:53:25.791Z,7.17
2023-04-13T15:55:29.523Z,6.95
2023-04-13T15:57:32.742Z,6.90
2023-04-13T15:59:36.783Z,6.99
2023-04-13T16:01:45.773Z,7.31
2023-04-13T16:03:48.693Z,7.07
2023-04-13T16:05:51.690Z,7.07
2023-04-13T16:07:54.920Z,7.27
2023-04-13T16:09:58.391Z,7.13
2023-04-13T16:12:02.712Z,7.21
2023-04-13T16:14:07.317Z,7.15
2023-04-13T16:16:14.418Z,7.08
2023-04-13T16:18:18.555Z,7.07
2023-04-13T16:20:22.212Z,6.96
2023-04-13T16:22:25.020Z,7.02
2023-04-13T16:24:28.696Z,7.09
2023-04-13T16:26:31.521Z,7.12
2023-04-13T16:28:34.630Z,7.11
2023-04-13T16:30:39.493Z,7.28
2023-04-13T16:32:44.588Z,7.36
2023-04-13T16:34:47.370Z,7.19
2023-04-13T16:36:50.133Z,7.32
2023-04-13T16:38:54.341Z,7.19
2023-04-13T16:40:57.114Z,7.27
2023-04-13T16:42:59.926Z,7.31
2023-04-13T16:45:02.766Z,7.21
2023-04-13T16:47:05.694Z,7.29
2023-04-13T16:49:10.291Z,7.18
2023-04-13T16:51:12.963Z,7.31
2023-04-13T16:53:17.419Z,7.54
2023-04-13T16:55:20.086Z,7.27
2023-04-13T16:57:22.779Z,7.63
2023-04-13T16:59:25.495Z,7.29
2023-04-13T17:01:28.879Z,7.60
2023-04-13T17:03:31.890Z,7.48
2023-04-13T17:05:36.633Z,7.30
2023-04-13T17:07:40.535Z,7.40
2023-04-13T17:09:43.488Z,7.26
2023-04-13T17:11:46.254Z,7.28
2023-04-13T17:13:48.944Z,7.38
2023-04-13T17:15:51.727Z,7.30
2023-04-13T17:17:54.849Z,7.41
2023-04-13T17:19:57.617Z,6.87
2023-04-13T17:22:01.828Z,7.15
2023-04-13T17:24:04.860Z,7.27
2023-04-13T17:26:07.530Z,7.03
2023-04-13T17:28:10.220Z,7.12
2023-04-13T17:30:13.580Z,6.98
2023-04-13T17:32:16.603Z,6.98
2023-04-13T17:34:19.454Z,7.00
2023-04-13T17:36:22.774Z,6.97
2023-04-13T17:38:26.864Z,6.90
2023-04-13T17:40:29.511Z,6.99
2023-04-13T17:42:32.235Z,6.95
2023-04-13T17:44:34.921Z,6.87
2023-04-13T17:46:37.614Z,6.71
2023-04-13T17:48:40.776Z,6.84
2023-04-13T17:50:43.700Z,6.76
2023-04-13T17:52:46.451Z,6.97
2023-04-13T17:54:50.904Z,7.03
2023-04-13T17:56:53.661Z,6.96
2023-04-13T17:58:56.334Z,6.86
2023-04-13T18:00:58.978Z,6.78
2023-04-13T18:03:05.188Z,6.74
2023-04-13T18:05:15.116Z,6.66
2023-04-13T18:07:18.279Z,6.72
2023-04-13T18:09:22.488Z,6.99
2023-04-13T18:11:26.522Z,7.09
2023-04-13T18:13:29.609Z,7.04
2023-04-13T18:15:32.388Z,6.97
2023-04-13T18:17:35.263Z,6.90
2023-04-13T18:19:37.978Z,6.84
2023-04-13T18:21:40.645Z,6.82
2023-04-13T18:23:43.305Z,6.62
2023-04-13T18:25:48.236Z,6.59
2023-04-13T18:27:52.230Z,6.52
2023-04-13T18:29:55.473Z,6.42
2023-04-13T18:31:58.224Z,6.31
2023-04-13T18:34:01.284Z,6.12
2023-04-13T18:36:04.191Z,6.05
2023-04-13T18:38:06.894Z,5.95
2023-04-13T18:40:10.924Z,5.81
2023-04-13T18:42:13.592Z,5.73
2023-04-13T18:44:17.623Z,5.57
2023-04-13T18:46:20.430Z,5.56
2023-04-13T18:48:23.125Z,5.56
2023-04-13T18:50:26.534Z,5.45
2023-04-13T18:52:29.926Z,5.47
2023-04-13T18:54:33.176Z,5.36
2023-04-13T18:56:36.071Z,5.30
2023-04-13T18:58:38.971Z,5.15
2023-04-13T19:00:43.038Z,5.16
2023-04-13T19:02:48.310Z,5.18
2023-04-13T19:04:51.252Z,5.24
2023-04-13T19:06:54.055Z,5.27
2023-04-13T19:08:56.695Z,5.23
2023-04-13T19:10:59.321Z,5.29
2023-04-13T19:13:02.028Z,5.22
2023-04-13T19:15:05.276Z,5.13
2023-04-13T19:17:09.318Z,5.16
2023-04-13T19:19:13.176Z,5.14
2023-04-13T19:21:18.368Z,5.25
2023-04-13T19:23:21.029Z,5.39
2023-04-13T19:25:23.901Z,5.31
2023-04-13T19:27:28.676Z,5.28
2023-04-13T19:29:31.637Z,5.47
2023-04-13T19:31:37.740Z,5.29
2023-04-13T19:33:42.222Z,5.18
2023-04-13T19:35:44.950Z,5.32
2023-04-13T19:37:47.664Z,5.41
2023-04-13T19:39:50.367Z,5.37
2023-04-13T19:41:53.288Z,5.23
2023-04-13T19:43:56.230Z,5.32
2023-04-13T19:45:58.997Z,5.32
2023-04-13T19:48:01.718Z,5.35
2023-04-13T19:50:07.364Z,5.44
2023-04-13T19:52:16.023Z,5.34
2023-04-13T19:54:18.748Z,5.17
2023-04-13T19:56:23.963Z,5.48
2023-04-13T19:58:26.739Z,5.15
2023-04-13T20:00:29.925Z,5.05
2023-04-13T20:02:32.696Z,5.25
2023-04-13T20:04:35.799Z,5.20
2023-04-13T20:06:40.109Z,5.13
2023-04-13T20:08:44.544Z,5.20
2023-04-13T20:10:47.321Z,5.00
2023-04-13T20:12:50.041Z,4.97
2023-04-13T20:14:53.438Z,4.99
2023-04-13T20:16:56.468Z,5.03
2023-04-13T20:18:59.154Z,5.07
2023-04-13T20:21:01.806Z,5.22
2023-04-13T20:23:07.825Z,5.19
2023-04-13T20:25:11.164Z,5.24
2023-04-13T20:27:13.870Z,5.30
2023-04-13T20:29:21.640Z,5.21
2023-04-13T20:31:25.470Z,5.28
2023-04-13T20:33:28.164Z,5.20
2023-04-13T20:35:30.761Z,5.12
2023-04-13T20:37:33.493Z,5.03
2023-04-13T20:39:40.186Z,5.10
2023-04-13T20:41:54.870Z,5.12
2023-04-13T20:43:58.759Z,5.19
2023-04-13T20:46:01.844Z,5.16
2023-04-13T20:50:10.894Z,5.07
2023-04-13T20:52:14.529Z,5.18
2023-04-13T20:54:17.475Z,5.22
2023-04-13T20:56:24.350Z,5.25
2023-04-13T20:58:28.720Z,5.32
2023-04-13T21:00:32.478Z,5.29
2023-04-13T21:02:35.428Z,5.09
2023-04-13T21:04:38.225Z,5.15
2023-04-13T21:06:41.180Z,5.31
2023-04-13T21:08:43.896Z,5.33
2023-04-13T21:10:46.786Z,5.23
2023-04-13T21:12:50.749Z,5.24
2023-04-13T21:14:53.481Z,5.31
2023-04-13T21:16:56.427Z,5.37
2023-04-13T21:18:59.170Z,5.35
2023-04-13T21:21:01.846Z,5.35
2023-04-13T21:23:04.612Z,5.44
2023-04-13T21:25:08.211Z,5.54
2023-04-13T21:27:10.896Z,5.40
2023-04-13T21:29:16.369Z,5.44
2023-04-13T21:31:19.035Z,5.35
2023-04-13T21:33:21.838Z,5.41
2023-04-13T21:35:24.557Z,5.47
2023-04-13T21:37:28.922Z,5.42
2023-04-13T21:39:31.674Z,5.23
2023-04-13T21:41:34.443Z,5.13
2023-04-13T21:43:37.168Z,5.15
2023-04-13T21:45:41.177Z,5.27
2023-04-13T21:47:44.061Z,5.33
2023-04-13T21:49:46.943Z,5.32
2023-04-13T21:51:50.623Z,5.38
2023-04-13T21:53:53.617Z,5.42
2023-04-13T21:55:56.574Z,5.44
2023-04-13T21:57:59.275Z,5.55
2023-04-13T22:00:03.311Z,5.56
2023-04-13T22:02:08.657Z,5.54
2023-04-13T22:04:12.624Z,5.45
2023-04-13T22:06:15.976Z,5.38
2023-04-13T22:08:18.764Z,5.48
2023-04-13T22:10:21.486Z,5.45
2023-04-13T22:12:24.235Z,5.37
2023-04-13T22:14:26.911Z,5.40
2023-04-13T22:16:29.559Z,5.36
2023-04-13T22:18:33.567Z,5.51
2023-04-13T22:20:36.506Z,5.38
2023-04-13T22:22:39.146Z,5.55
2023-04-13T22:24:41.780Z,5.45
2023-04-13T22:26:44.490Z,5.46
2023-04-13T22:28:47.130Z,5.38
2023-04-13T22:30:51.742Z,5.42
2023-04-13T22:32:54.545Z,5.46
2023-04-13T22:34:59.254Z,5.53
2023-04-13T22:37:04.484Z,5.44
2023-04-13T22:39:07.669Z,5.40
2023-04-13T22:41:10.381Z,5.52
2023-04-13T22:43:13.106Z,5.55
2023-04-13T22:45:15.936Z,5.57
2023-04-13T22:47:18.652Z,5.42
2023-04-13T22:49:21.851Z,5.51
2023-04-13T22:51:26.544Z,5.65
2023-04-13T22:53:29.663Z,5.55
2023-04-13T22:55:32.484Z,5.56
2023-04-13T22:57:35.490Z,5.46
2023-04-13T22:59:38.208Z,5.51
2023-04-13T23:01:41.034Z,5.57
2023-04-13T23:03:43.951Z,5.65
2023-04-13T23:05:46.772Z,5.61
2023-04-13T23:07:51.485Z,5.49
2023-04-13T23:09:54.115Z,5.68
2023-04-13T23:11:57.297Z,5.56
2023-04-13T23:14:00.623Z,5.78
2023-04-13T23:16:05.090Z,5.75
2023-04-13T23:18:08.134Z,5.70
2023-04-13T23:20:11.579Z,5.67
2023-04-13T23:22:14.300Z,5.68
2023-04-13T23:24:18.437Z,5.60
2023-04-13T23:26:21.300Z,5.75
2023-04-13T23:28:24.765Z,5.58
2023-04-13T23:30:27.426Z,5.66
2023-04-13T23:32:30.133Z,5.74
2023-04-13T23:34:33.027Z,5.61
2023-04-13T23:36:35.724Z,5.70
2023-04-13T23:38:38.635Z,5.75
2023-04-13T23:40:42.678Z,5.72
2023-04-13T23:42:45.410Z,5.79
2023-04-13T23:44:48.158Z,5.89
2023-04-13T23:46:50.898Z,5.96
2023-04-13T23:48:53.526Z,5.88
2023-04-13T23:50:57.345Z,5.88
2023-04-13T23:53:00.716Z,5.85
2023-04-13T23:55:03.542Z,5.88
2023-04-13T23:57:09.432Z,5.84
2023-04-13T23:59:12.135Z,5.83
